sensor_id;sensor_type;location;lat;lon;timestamp;P1;durP1;ratioP1;P2;durP2;ratioP2
22622;SDS011;11478;51.094;7.030;2023-08-20T00:00:10;16.70;;;8.02;;
22622;SDS011;11478;51.094;7.030;2023-08-20T00:02:40;17.65;;;7.90;;
22622;SDS011;11478;51.094;7.030;2023-08-20T00:05:08;16.75;;;8.48;;
22622;SDS011;11478;51.094;7.030;2023-08-20T00:07:36;19.25;;;8.90;;
22622;SDS011;11478;51.094;7.030;2023-08-20T00:10:11;16.60;;;8.57;;
22622;SDS011;11478;51.094;7.030;2023-08-20T00:12:37;13.32;;;8.23;;
22622;SDS011;11478;51.094;7.030;2023-08-20T00:15:03;12.13;;;7.60;;
22622;SDS011;11478;51.094;7.030;2023-08-20T00:17:32;13.07;;;7.72;;
22622;SDS011;11478;51.094;7.030;2023-08-20T00:20:08;16.05;;;8.18;;
22622;SDS011;11478;51.094;7.030;2023-08-20T00:22:43;14.98;;;8.32;;
22622;SDS011;11478;51.094;7.030;2023-08-20T00:28:01;11.90;;;7.82;;
22622;SDS011;11478;51.094;7.030;2023-08-20T00:30:38;9.35;;;7.55;;
22622;SDS011;11478;51.094;7.030;2023-08-20T00:33:04;16.17;;;7.72;;
22622;SDS011;11478;51.094;7.030;2023-08-20T00:35:31;13.15;;;7.53;;
22622;SDS011;11478;51.094;7.030;2023-08-20T00:38:00;16.45;;;7.40;;
22622;SDS011;11478;51.094;7.030;2023-08-20T00:40:38;10.48;;;7.82;;
22622;SDS011;11478;51.094;7.030;2023-08-20T00:43:04;15.02;;;8.15;;
22622;SDS011;11478;51.094;7.030;2023-08-20T00:48:24;13.50;;;7.60;;
22622;SDS011;11478;51.094;7.030;2023-08-20T00:50:51;15.07;;;8.02;;
22622;SDS011;11478;51.094;7.030;2023-08-20T00:53:17;12.65;;;7.85;;
22622;SDS011;11478;51.094;7.030;2023-08-20T00:55:45;18.45;;;8.32;;
22622;SDS011;11478;51.094;7.030;2023-08-20T00:58:11;12.07;;;8.60;;
22622;SDS011;11478;51.094;7.030;2023-08-20T01:00:37;12.45;;;8.48;;
22622;SDS011;11478;51.094;7.030;2023-08-20T01:03:03;13.63;;;8.18;;
22622;SDS011;11478;51.094;7.030;2023-08-20T01:05:31;12.52;;;8.93;;
22622;SDS011;11478;51.094;7.030;2023-08-20T01:13:42;10.80;;;7.93;;
22622;SDS011;11478;51.094;7.030;2023-08-20T01:16:08;13.97;;;8.37;;
22622;SDS011;11478;51.094;7.030;2023-08-20T01:21:06;16.60;;;7.95;;
22622;SDS011;11478;51.094;7.030;2023-08-20T01:23:51;13.15;;;7.55;;
22622;SDS011;11478;51.094;7.030;2023-08-20T01:29:14;13.18;;;8.55;;
22622;SDS011;11478;51.094;7.030;2023-08-20T01:31:54;16.63;;;8.30;;
22622;SDS011;11478;51.094;7.030;2023-08-20T01:34:21;16.52;;;8.60;;
22622;SDS011;11478;51.094;7.030;2023-08-20T01:36:49;22.60;;;11.35;;
22622;SDS011;11478;51.094;7.030;2023-08-20T01:39:15;15.13;;;8.75;;
22622;SDS011;11478;51.094;7.030;2023-08-20T01:44:12;14.45;;;7.70;;
22622;SDS011;11478;51.094;7.030;2023-08-20T01:46:39;17.45;;;8.63;;
22622;SDS011;11478;51.094;7.030;2023-08-20T01:49:05;19.98;;;9.20;;
22622;SDS011;11478;51.094;7.030;2023-08-20T01:51:40;13.48;;;8.25;;
22622;SDS011;11478;51.094;7.030;2023-08-20T01:54:06;14.38;;;7.93;;
22622;SDS011;11478;51.094;7.030;2023-08-20T01:56:33;11.95;;;7.90;;
22622;SDS011;11478;51.094;7.030;2023-08-20T01:59:01;17.83;;;8.55;;
22622;SDS011;11478;51.094;7.030;2023-08-20T02:01:30;14.60;;;8.85;;
22622;SDS011;11478;51.094;7.030;2023-08-20T02:03:56;19.23;;;8.80;;
22622;SDS011;11478;51.094;7.030;2023-08-20T02:06:22;24.83;;;11.27;;
22622;SDS011;11478;51.094;7.030;2023-08-20T02:08:48;16.20;;;8.20;;
22622;SDS011;11478;51.094;7.030;2023-08-20T02:11:16;14.32;;;9.30;;
22622;SDS011;11478;51.094;7.030;2023-08-20T02:13:42;25.90;;;9.70;;
22622;SDS011;11478;51.094;7.030;2023-08-20T02:16:09;16.23;;;9.18;;
22622;SDS011;11478;51.094;7.030;2023-08-20T02:18:35;12.38;;;8.30;;
22622;SDS011;11478;51.094;7.030;2023-08-20T02:21:15;11.18;;;8.00;;
22622;SDS011;11478;51.094;7.030;2023-08-20T02:23:41;15.98;;;8.88;;
22622;SDS011;11478;51.094;7.030;2023-08-20T02:26:07;17.30;;;8.52;;
22622;SDS011;11478;51.094;7.030;2023-08-20T02:28:32;12.82;;;8.38;;
22622;SDS011;11478;51.094;7.030;2023-08-20T02:31:18;11.43;;;8.35;;
22622;SDS011;11478;51.094;7.030;2023-08-20T02:33:44;14.68;;;8.85;;
22622;SDS011;11478;51.094;7.030;2023-08-20T02:36:13;17.70;;;8.38;;
22622;SDS011;11478;51.094;7.030;2023-08-20T02:38:39;11.82;;;7.75;;
22622;SDS011;11478;51.094;7.030;2023-08-20T02:43:37;15.35;;;8.18;;
22622;SDS011;11478;51.094;7.030;2023-08-20T02:46:03;11.95;;;7.85;;
22622;SDS011;11478;51.094;7.030;2023-08-20T02:48:29;13.35;;;8.27;;
22622;SDS011;11478;51.094;7.030;2023-08-20T02:50:59;15.52;;;8.57;;
22622;SDS011;11478;51.094;7.030;2023-08-20T02:53:25;10.93;;;7.85;;
22622;SDS011;11478;51.094;7.030;2023-08-20T02:55:51;13.18;;;8.63;;
22622;SDS011;11478;51.094;7.030;2023-08-20T02:58:21;14.85;;;8.88;;
22622;SDS011;11478;51.094;7.030;2023-08-20T03:00:48;17.42;;;9.18;;
22622;SDS011;11478;51.094;7.030;2023-08-20T03:03:14;12.05;;;8.65;;
22622;SDS011;11478;51.094;7.030;2023-08-20T03:05:41;14.02;;;8.70;;
22622;SDS011;11478;51.094;7.030;2023-08-20T03:08:07;17.83;;;8.85;;
22622;SDS011;11478;51.094;7.030;2023-08-20T03:10:33;10.60;;;8.98;;
22622;SDS011;11478;51.094;7.030;2023-08-20T03:13:03;16.83;;;9.05;;
22622;SDS011;11478;51.094;7.030;2023-08-20T03:15:29;13.00;;;9.35;;
22622;SDS011;11478;51.094;7.030;2023-08-20T03:18:06;12.50;;;9.27;;
22622;SDS011;11478;51.094;7.030;2023-08-20T03:20:32;16.95;;;8.40;;
22622;SDS011;11478;51.094;7.030;2023-08-20T03:23:03;15.82;;;9.60;;
22622;SDS011;11478;51.094;7.030;2023-08-20T03:25:29;11.73;;;8.73;;
22622;SDS011;11478;51.094;7.030;2023-08-20T03:27:56;17.27;;;8.70;;
22622;SDS011;11478;51.094;7.030;2023-08-20T03:30:22;10.75;;;8.13;;
22622;SDS011;11478;51.094;7.030;2023-08-20T03:32:51;12.27;;;8.18;;
22622;SDS011;11478;51.094;7.030;2023-08-20T03:35:17;15.77;;;8.70;;
22622;SDS011;11478;51.094;7.030;2023-08-20T03:37:43;21.38;;;9.07;;
22622;SDS011;11478;51.094;7.030;2023-08-20T03:40:09;13.65;;;9.23;;
22622;SDS011;11478;51.094;7.030;2023-08-20T03:42:37;11.50;;;8.70;;
22622;SDS011;11478;51.094;7.030;2023-08-20T03:45:03;11.23;;;8.93;;
22622;SDS011;11478;51.094;7.030;2023-08-20T03:47:37;19.90;;;9.68;;
22622;SDS011;11478;51.094;7.030;2023-08-20T03:50:06;17.33;;;9.20;;
22622;SDS011;11478;51.094;7.030;2023-08-20T03:52:32;18.77;;;9.65;;
22622;SDS011;11478;51.094;7.030;2023-08-20T03:55:02;12.68;;;8.57;;
22622;SDS011;11478;51.094;7.030;2023-08-20T03:57:29;16.60;;;10.73;;
22622;SDS011;11478;51.094;7.030;2023-08-20T03:59:55;13.75;;;9.32;;
22622;SDS011;11478;51.094;7.030;2023-08-20T04:02:33;12.73;;;8.50;;
22622;SDS011;11478;51.094;7.030;2023-08-20T04:04:59;11.85;;;8.52;;
22622;SDS011;11478;51.094;7.030;2023-08-20T04:07:26;21.67;;;9.82;;
22622;SDS011;11478;51.094;7.030;2023-08-20T04:09:53;16.42;;;9.65;;
22622;SDS011;11478;51.094;7.030;2023-08-20T04:12:19;13.77;;;8.57;;
22622;SDS011;11478;51.094;7.030;2023-08-20T04:14:51;17.83;;;12.25;;
22622;SDS011;11478;51.094;7.030;2023-08-20T04:17:17;16.15;;;9.82;;
22622;SDS011;11478;51.094;7.030;2023-08-20T04:19:56;12.63;;;9.50;;
22622;SDS011;11478;51.094;7.030;2023-08-20T04:22:22;11.40;;;8.60;;
22622;SDS011;11478;51.094;7.030;2023-08-20T04:24:49;14.95;;;9.23;;
22622;SDS011;11478;51.094;7.030;2023-08-20T04:27:14;12.43;;;8.68;;
22622;SDS011;11478;51.094;7.030;2023-08-20T04:29:47;13.45;;;9.25;;
22622;SDS011;11478;51.094;7.030;2023-08-20T04:32:12;13.45;;;8.02;;
22622;SDS011;11478;51.094;7.030;2023-08-20T04:34:40;14.13;;;9.18;;
22622;SDS011;11478;51.094;7.030;2023-08-20T04:37:06;16.20;;;9.10;;
22622;SDS011;11478;51.094;7.030;2023-08-20T04:39:36;14.45;;;8.32;;
22622;SDS011;11478;51.094;7.030;2023-08-20T04:42:02;10.25;;;8.43;;
22622;SDS011;11478;51.094;7.030;2023-08-20T04:44:30;11.63;;;8.20;;
22622;SDS011;11478;51.094;7.030;2023-08-20T04:46:56;14.07;;;8.50;;
22622;SDS011;11478;51.094;7.030;2023-08-20T04:49:29;12.45;;;7.97;;
22622;SDS011;11478;51.094;7.030;2023-08-20T04:51:55;11.07;;;7.82;;
22622;SDS011;11478;51.094;7.030;2023-08-20T04:54:24;9.30;;;8.32;;
22622;SDS011;11478;51.094;7.030;2023-08-20T04:56:50;14.20;;;9.15;;
22622;SDS011;11478;51.094;7.030;2023-08-20T04:59:16;17.05;;;8.80;;
22622;SDS011;11478;51.094;7.030;2023-08-20T05:01:43;13.80;;;8.60;;
22622;SDS011;11478;51.094;7.030;2023-08-20T05:04:17;17.95;;;9.52;;
22622;SDS011;11478;51.094;7.030;2023-08-20T05:06:43;9.43;;;8.05;;
22622;SDS011;11478;51.094;7.030;2023-08-20T05:09:08;12.48;;;8.60;;
22622;SDS011;11478;51.094;7.030;2023-08-20T05:11:34;13.25;;;8.07;;
22622;SDS011;11478;51.094;7.030;2023-08-20T05:14:00;12.15;;;8.55;;
22622;SDS011;11478;51.094;7.030;2023-08-20T05:16:26;11.15;;;8.45;;
22622;SDS011;11478;51.094;7.030;2023-08-20T05:18:53;14.10;;;8.27;;
22622;SDS011;11478;51.094;7.030;2023-08-20T05:21:18;14.32;;;9.25;;
22622;SDS011;11478;51.094;7.030;2023-08-20T05:23:44;19.88;;;10.00;;
22622;SDS011;11478;51.094;7.030;2023-08-20T05:26:10;17.00;;;9.27;;
22622;SDS011;11478;51.094;7.030;2023-08-20T05:28:55;13.45;;;9.77;;
22622;SDS011;11478;51.094;7.030;2023-08-20T05:31:21;14.40;;;9.20;;
22622;SDS011;11478;51.094;7.030;2023-08-20T05:33:47;11.20;;;8.85;;
22622;SDS011;11478;51.094;7.030;2023-08-20T05:36:13;15.23;;;9.20;;
22622;SDS011;11478;51.094;7.030;2023-08-20T05:38:45;11.98;;;8.30;;
22622;SDS011;11478;51.094;7.030;2023-08-20T05:41:10;13.77;;;8.93;;
22622;SDS011;11478;51.094;7.030;2023-08-20T05:46:21;15.57;;;9.38;;
22622;SDS011;11478;51.094;7.030;2023-08-20T05:48:49;10.85;;;8.65;;
22622;SDS011;11478;51.094;7.030;2023-08-20T05:51:15;12.68;;;9.18;;
22622;SDS011;11478;51.094;7.030;2023-08-20T05:53:41;15.63;;;9.15;;
22622;SDS011;11478;51.094;7.030;2023-08-20T05:56:06;17.33;;;9.00;;
22622;SDS011;11478;51.094;7.030;2023-08-20T05:58:33;14.38;;;9.02;;
22622;SDS011;11478;51.094;7.030;2023-08-20T06:00:59;14.55;;;8.80;;
22622;SDS011;11478;51.094;7.030;2023-08-20T06:03:26;17.60;;;9.52;;
22622;SDS011;11478;51.094;7.030;2023-08-20T06:05:52;14.27;;;9.00;;
22622;SDS011;11478;51.094;7.030;2023-08-20T06:08:18;10.15;;;9.02;;
22622;SDS011;11478;51.094;7.030;2023-08-20T06:10:45;11.80;;;8.90;;
22622;SDS011;11478;51.094;7.030;2023-08-20T06:13:13;14.98;;;9.63;;
22622;SDS011;11478;51.094;7.030;2023-08-20T06:18:20;11.30;;;8.85;;
22622;SDS011;11478;51.094;7.030;2023-08-20T06:20:46;8.93;;;8.07;;
22622;SDS011;11478;51.094;7.030;2023-08-20T06:23:12;10.32;;;8.80;;
22622;SDS011;11478;51.094;7.030;2023-08-20T06:25:39;10.75;;;7.82;;
22622;SDS011;11478;51.094;7.030;2023-08-20T06:28:05;8.70;;;7.80;;
22622;SDS011;11478;51.094;7.030;2023-08-20T06:30:46;9.50;;;7.43;;
22622;SDS011;11478;51.094;7.030;2023-08-20T06:33:12;13.13;;;8.20;;
22622;SDS011;11478;51.094;7.030;2023-08-20T06:35:43;11.40;;;7.95;;
22622;SDS011;11478;51.094;7.030;2023-08-20T06:38:17;10.32;;;8.50;;
22622;SDS011;11478;51.094;7.030;2023-08-20T06:40:43;8.27;;;7.45;;
22622;SDS011;11478;51.094;7.030;2023-08-20T06:43:09;10.02;;;7.47;;
22622;SDS011;11478;51.094;7.030;2023-08-20T06:45:36;14.15;;;7.80;;
22622;SDS011;11478;51.094;7.030;2023-08-20T06:48:02;10.23;;;6.97;;
22622;SDS011;11478;51.094;7.030;2023-08-20T06:55:30;8.55;;;7.50;;
22622;SDS011;11478;51.094;7.030;2023-08-20T06:57:56;9.20;;;6.90;;
22622;SDS011;11478;51.094;7.030;2023-08-20T07:00:23;10.57;;;7.90;;
22622;SDS011;11478;51.094;7.030;2023-08-20T07:02:49;8.43;;;7.50;;
22622;SDS011;11478;51.094;7.030;2023-08-20T07:05:14;9.15;;;8.18;;
22622;SDS011;11478;51.094;7.030;2023-08-20T07:07:41;8.38;;;7.20;;
22622;SDS011;11478;51.094;7.030;2023-08-20T07:10:07;8.82;;;7.85;;
22622;SDS011;11478;51.094;7.030;2023-08-20T07:12:33;9.43;;;8.30;;
22622;SDS011;11478;51.094;7.030;2023-08-20T07:14:59;12.50;;;8.45;;
22622;SDS011;11478;51.094;7.030;2023-08-20T07:17:25;10.40;;;8.45;;
22622;SDS011;11478;51.094;7.030;2023-08-20T07:20:02;11.15;;;9.18;;
22622;SDS011;11478;51.094;7.030;2023-08-20T07:22:28;9.50;;;8.40;;
22622;SDS011;11478;51.094;7.030;2023-08-20T07:24:58;13.55;;;9.25;;
22622;SDS011;11478;51.094;7.030;2023-08-20T07:27:24;13.23;;;9.25;;
22622;SDS011;11478;51.094;7.030;2023-08-20T07:32:20;9.50;;;8.32;;
22622;SDS011;11478;51.094;7.030;2023-08-20T07:34:50;11.65;;;8.00;;
22622;SDS011;11478;51.094;7.030;2023-08-20T07:37:16;9.07;;;7.75;;
22622;SDS011;11478;51.094;7.030;2023-08-20T07:39:44;8.65;;;7.40;;
22622;SDS011;11478;51.094;7.030;2023-08-20T07:42:10;9.40;;;7.60;;
22622;SDS011;11478;51.094;7.030;2023-08-20T07:44:43;10.32;;;7.10;;
22622;SDS011;11478;51.094;7.030;2023-08-20T07:47:09;8.45;;;6.40;;
22622;SDS011;11478;51.094;7.030;2023-08-20T07:49:35;8.82;;;6.72;;
22622;SDS011;11478;51.094;7.030;2023-08-20T07:52:01;10.35;;;7.38;;
22622;SDS011;11478;51.094;7.030;2023-08-20T07:54:28;8.55;;;7.00;;
22622;SDS011;11478;51.094;7.030;2023-08-20T07:56:54;10.18;;;7.10;;
22622;SDS011;11478;51.094;7.030;2023-08-20T07:59:23;9.38;;;6.72;;
22622;SDS011;11478;51.094;7.030;2023-08-20T08:01:48;9.13;;;7.07;;
22622;SDS011;11478;51.094;7.030;2023-08-20T08:04:21;13.18;;;8.25;;
22622;SDS011;11478;51.094;7.030;2023-08-20T08:06:47;9.45;;;6.72;;
22622;SDS011;11478;51.094;7.030;2023-08-20T08:09:21;9.00;;;7.45;;
22622;SDS011;11478;51.094;7.030;2023-08-20T08:11:59;11.23;;;7.93;;
22622;SDS011;11478;51.094;7.030;2023-08-20T08:14:25;12.82;;;8.60;;
22622;SDS011;11478;51.094;7.030;2023-08-20T08:16:53;11.23;;;8.45;;
22622;SDS011;11478;51.094;7.030;2023-08-20T08:19:21;10.73;;;7.78;;
22622;SDS011;11478;51.094;7.030;2023-08-20T08:21:47;11.82;;;8.00;;
22622;SDS011;11478;51.094;7.030;2023-08-20T08:24:13;9.73;;;8.70;;
22622;SDS011;11478;51.094;7.030;2023-08-20T08:26:40;11.60;;;9.23;;
22622;SDS011;11478;51.094;7.030;2023-08-20T08:29:07;12.27;;;8.25;;
22622;SDS011;11478;51.094;7.030;2023-08-20T08:31:46;9.30;;;7.63;;
22622;SDS011;11478;51.094;7.030;2023-08-20T08:34:12;11.88;;;8.57;;
22622;SDS011;11478;51.094;7.030;2023-08-20T08:36:59;11.80;;;9.55;;
22622;SDS011;11478;51.094;7.030;2023-08-20T08:39:28;10.38;;;8.52;;
22622;SDS011;11478;51.094;7.030;2023-08-20T08:42:00;9.38;;;8.25;;
22622;SDS011;11478;51.094;7.030;2023-08-20T08:44:30;7.90;;;7.07;;
22622;SDS011;11478;51.094;7.030;2023-08-20T08:49:43;11.05;;;8.50;;
22622;SDS011;11478;51.094;7.030;2023-08-20T08:52:13;9.38;;;7.30;;
22622;SDS011;11478;51.094;7.030;2023-08-20T08:54:40;10.38;;;8.55;;
22622;SDS011;11478;51.094;7.030;2023-08-20T08:57:10;9.93;;;7.85;;
22622;SDS011;11478;51.094;7.030;2023-08-20T08:59:36;9.30;;;6.90;;
22622;SDS011;11478;51.094;7.030;2023-08-20T09:02:07;9.27;;;7.28;;
22622;SDS011;11478;51.094;7.030;2023-08-20T09:04:34;12.30;;;7.47;;
22622;SDS011;11478;51.094;7.030;2023-08-20T09:07:25;10.18;;;7.60;;
22622;SDS011;11478;51.094;7.030;2023-08-20T09:09:56;9.93;;;8.35;;
22622;SDS011;11478;51.094;7.030;2023-08-20T09:12:24;8.18;;;6.30;;
22622;SDS011;11478;51.094;7.030;2023-08-20T09:14:52;7.90;;;6.18;;
22622;SDS011;11478;51.094;7.030;2023-08-20T09:17:24;10.18;;;6.05;;
22622;SDS011;11478;51.094;7.030;2023-08-20T09:19:51;9.98;;;6.88;;
22622;SDS011;11478;51.094;7.030;2023-08-20T09:22:31;8.10;;;7.07;;
22622;SDS011;11478;51.094;7.030;2023-08-20T09:25:00;8.40;;;6.38;;
22622;SDS011;11478;51.094;7.030;2023-08-20T09:27:29;8.68;;;6.03;;
22622;SDS011;11478;51.094;7.030;2023-08-20T09:30:05;7.25;;;5.63;;
22622;SDS011;11478;51.094;7.030;2023-08-20T09:32:32;7.40;;;5.70;;
22622;SDS011;11478;51.094;7.030;2023-08-20T09:35:00;6.15;;;5.32;;
22622;SDS011;11478;51.094;7.030;2023-08-20T09:37:28;6.90;;;5.35;;
22622;SDS011;11478;51.094;7.030;2023-08-20T09:39:54;5.05;;;4.55;;
22622;SDS011;11478;51.094;7.030;2023-08-20T09:45:09;6.68;;;4.60;;
22622;SDS011;11478;51.094;7.030;2023-08-20T09:47:40;8.52;;;5.63;;
22622;SDS011;11478;51.094;7.030;2023-08-20T09:50:10;7.17;;;4.60;;
22622;SDS011;11478;51.094;7.030;2023-08-20T09:55:48;8.48;;;4.20;;
22622;SDS011;11478;51.094;7.030;2023-08-20T09:58:26;6.60;;;5.10;;
22622;SDS011;11478;51.094;7.030;2023-08-20T10:00:55;9.20;;;5.57;;
22622;SDS011;11478;51.094;7.030;2023-08-20T10:03:22;10.68;;;5.97;;
22622;SDS011;11478;51.094;7.030;2023-08-20T10:05:50;10.85;;;6.28;;
22622;SDS011;11478;51.094;7.030;2023-08-20T10:08:21;9.23;;;7.32;;
22622;SDS011;11478;51.094;7.030;2023-08-20T10:10:51;7.85;;;6.80;;
22622;SDS011;11478;51.094;7.030;2023-08-20T10:13:16;8.85;;;6.05;;
22622;SDS011;11478;51.094;7.030;2023-08-20T10:15:46;9.82;;;6.07;;
22622;SDS011;11478;51.094;7.030;2023-08-20T10:18:12;7.88;;;5.82;;
22622;SDS011;11478;51.094;7.030;2023-08-20T10:20:39;6.85;;;6.10;;
22622;SDS011;11478;51.094;7.030;2023-08-20T10:23:07;8.60;;;6.70;;
22622;SDS011;11478;51.094;7.030;2023-08-20T10:33:49;8.82;;;6.25;;
22622;SDS011;11478;51.094;7.030;2023-08-20T10:38:58;6.47;;;5.78;;
22622;SDS011;11478;51.094;7.030;2023-08-20T10:41:30;7.32;;;5.55;;
22622;SDS011;11478;51.094;7.030;2023-08-20T10:44:01;8.45;;;5.95;;
22622;SDS011;11478;51.094;7.030;2023-08-20T10:46:34;11.23;;;6.43;;
22622;SDS011;11478;51.094;7.030;2023-08-20T10:49:15;8.73;;;6.07;;
22622;SDS011;11478;51.094;7.030;2023-08-20T10:51:43;8.38;;;6.47;;
22622;SDS011;11478;51.094;7.030;2023-08-20T10:54:13;9.45;;;6.25;;
22622;SDS011;11478;51.094;7.030;2023-08-20T10:59:39;7.50;;;6.10;;
22622;SDS011;11478;51.094;7.030;2023-08-20T11:02:06;10.40;;;5.78;;
22622;SDS011;11478;51.094;7.030;2023-08-20T11:04:40;7.30;;;6.05;;
22622;SDS011;11478;51.094;7.030;2023-08-20T11:07:09;6.45;;;5.70;;
22622;SDS011;11478;51.094;7.030;2023-08-20T11:09:36;6.85;;;5.63;;
22622;SDS011;11478;51.094;7.030;2023-08-20T11:12:07;7.20;;;5.90;;
22622;SDS011;11478;51.094;7.030;2023-08-20T11:17:39;9.40;;;7.05;;
22622;SDS011;11478;51.094;7.030;2023-08-20T11:20:25;8.82;;;6.32;;
22622;SDS011;11478;51.094;7.030;2023-08-20T11:22:51;7.93;;;6.00;;
22622;SDS011;11478;51.094;7.030;2023-08-20T11:28:44;7.50;;;6.50;;
22622;SDS011;11478;51.094;7.030;2023-08-20T11:31:11;7.72;;;6.43;;
22622;SDS011;11478;51.094;7.030;2023-08-20T11:36:14;6.53;;;5.85;;
22622;SDS011;11478;51.094;7.030;2023-08-20T11:38:54;7.68;;;6.63;;
22622;SDS011;11478;51.094;7.030;2023-08-20T11:41:20;7.45;;;5.88;;
22622;SDS011;11478;51.094;7.030;2023-08-20T11:43:50;6.18;;;5.50;;
22622;SDS011;11478;51.094;7.030;2023-08-20T11:46:21;8.75;;;6.22;;
22622;SDS011;11478;51.094;7.030;2023-08-20T11:49:06;7.00;;;5.22;;
22622;SDS011;11478;51.094;7.030;2023-08-20T11:51:40;9.60;;;6.05;;
22622;SDS011;11478;51.094;7.030;2023-08-20T11:54:20;8.10;;;5.45;;
22622;SDS011;11478;51.094;7.030;2023-08-20T11:57:01;6.47;;;5.45;;
22622;SDS011;11478;51.094;7.030;2023-08-20T11:59:30;7.00;;;5.47;;
22622;SDS011;11478;51.094;7.030;2023-08-20T12:04:28;6.70;;;5.40;;
22622;SDS011;11478;51.094;7.030;2023-08-20T12:09:54;6.10;;;5.28;;
22622;SDS011;11478;51.094;7.030;2023-08-20T12:17:55;7.57;;;5.45;;
22622;SDS011;11478;51.094;7.030;2023-08-20T12:20:21;6.75;;;6.03;;
22622;SDS011;11478;51.094;7.030;2023-08-20T12:22:47;6.78;;;6.05;;
22622;SDS011;11478;51.094;7.030;2023-08-20T12:25:13;6.68;;;5.82;;
22622;SDS011;11478;51.094;7.030;2023-08-20T12:27:43;9.75;;;6.65;;
22622;SDS011;11478;51.094;7.030;2023-08-20T12:30:14;7.03;;;5.78;;
22622;SDS011;11478;51.094;7.030;2023-08-20T12:32:40;6.50;;;5.85;;
22622;SDS011;11478;51.094;7.030;2023-08-20T12:35:06;7.30;;;5.22;;
22622;SDS011;11478;51.094;7.030;2023-08-20T12:37:44;8.27;;;5.90;;
22622;SDS011;11478;51.094;7.030;2023-08-20T12:40:10;6.88;;;5.75;;
22622;SDS011;11478;51.094;7.030;2023-08-20T12:45:25;8.07;;;5.53;;
22622;SDS011;11478;51.094;7.030;2023-08-20T12:47:52;8.45;;;5.63;;
22622;SDS011;11478;51.094;7.030;2023-08-20T12:50:19;7.85;;;5.75;;
22622;SDS011;11478;51.094;7.030;2023-08-20T12:52:45;8.30;;;6.32;;
22622;SDS011;11478;51.094;7.030;2023-08-20T12:55:15;6.70;;;5.50;;
22622;SDS011;11478;51.094;7.030;2023-08-20T12:57:56;9.60;;;5.65;;
22622;SDS011;11478;51.094;7.030;2023-08-20T13:00:23;10.07;;;6.38;;
22622;SDS011;11478;51.094;7.030;2023-08-20T13:03:05;7.05;;;5.53;;
22622;SDS011;11478;51.094;7.030;2023-08-20T13:05:31;9.60;;;5.53;;
22622;SDS011;11478;51.094;7.030;2023-08-20T13:07:59;8.35;;;5.53;;
22622;SDS011;11478;51.094;7.030;2023-08-20T13:10:28;6.57;;;5.90;;
22622;SDS011;11478;51.094;7.030;2023-08-20T13:15:40;7.32;;;5.60;;
22622;SDS011;11478;51.094;7.030;2023-08-20T13:18:11;7.88;;;5.68;;
22622;SDS011;11478;51.094;7.030;2023-08-20T13:20:39;7.40;;;5.43;;
22622;SDS011;11478;51.094;7.030;2023-08-20T13:23:09;6.40;;;5.38;;
22622;SDS011;11478;51.094;7.030;2023-08-20T13:25:36;6.75;;;5.40;;
22622;SDS011;11478;51.094;7.030;2023-08-20T13:28:03;6.72;;;5.35;;
22622;SDS011;11478;51.094;7.030;2023-08-20T13:30:29;5.63;;;5.00;;
22622;SDS011;11478;51.094;7.030;2023-08-20T13:32:55;7.90;;;5.40;;
22622;SDS011;11478;51.094;7.030;2023-08-20T13:35:21;7.40;;;5.82;;
22622;SDS011;11478;51.094;7.030;2023-08-20T13:37:55;7.90;;;5.40;;
22622;SDS011;11478;51.094;7.030;2023-08-20T13:40:20;5.80;;;5.20;;
22622;SDS011;11478;51.094;7.030;2023-08-20T13:42:55;6.60;;;5.38;;
22622;SDS011;11478;51.094;7.030;2023-08-20T13:45:24;8.35;;;5.70;;
22622;SDS011;11478;51.094;7.030;2023-08-20T13:47:50;6.90;;;5.57;;
22622;SDS011;11478;51.094;7.030;2023-08-20T13:50:16;5.40;;;4.90;;
22622;SDS011;11478;51.094;7.030;2023-08-20T13:52:43;7.93;;;5.43;;
22622;SDS011;11478;51.094;7.030;2023-08-20T13:55:11;6.43;;;5.07;;
22622;SDS011;11478;51.094;7.030;2023-08-20T13:57:38;5.80;;;5.20;;
22622;SDS011;11478;51.094;7.030;2023-08-20T14:00:05;8.20;;;5.40;;
22622;SDS011;11478;51.094;7.030;2023-08-20T14:02:37;7.50;;;5.00;;
22622;SDS011;11478;51.094;7.030;2023-08-20T14:05:06;6.93;;;5.22;;
22622;SDS011;11478;51.094;7.030;2023-08-20T14:07:45;8.40;;;5.30;;
22622;SDS011;11478;51.094;7.030;2023-08-20T14:10:11;7.25;;;5.32;;
22622;SDS011;11478;51.094;7.030;2023-08-20T14:12:37;7.35;;;5.60;;
22622;SDS011;11478;51.094;7.030;2023-08-20T14:15:04;6.00;;;5.40;;
22622;SDS011;11478;51.094;7.030;2023-08-20T14:17:31;7.78;;;5.53;;
22622;SDS011;11478;51.094;7.030;2023-08-20T14:19:57;7.95;;;5.13;;
22622;SDS011;11478;51.094;7.030;2023-08-20T14:22:23;6.65;;;5.90;;
22622;SDS011;11478;51.094;7.030;2023-08-20T14:24:52;6.97;;;5.53;;
22622;SDS011;11478;51.094;7.030;2023-08-20T14:27:18;17.00;;;12.55;;
22622;SDS011;11478;51.094;7.030;2023-08-20T14:29:46;9.18;;;7.82;;
22622;SDS011;11478;51.094;7.030;2023-08-20T14:32:12;10.60;;;7.30;;
22622;SDS011;11478;51.094;7.030;2023-08-20T14:34:40;8.75;;;5.90;;
22622;SDS011;11478;51.094;7.030;2023-08-20T14:37:05;7.63;;;6.00;;
22622;SDS011;11478;51.094;7.030;2023-08-20T14:39:32;7.28;;;6.30;;
22622;SDS011;11478;51.094;7.030;2023-08-20T14:41:58;7.95;;;6.13;;
22622;SDS011;11478;51.094;7.030;2023-08-20T14:44:24;7.80;;;5.93;;
22622;SDS011;11478;51.094;7.030;2023-08-20T14:46:50;8.23;;;6.05;;
22622;SDS011;11478;51.094;7.030;2023-08-20T14:49:16;7.13;;;5.80;;
22622;SDS011;11478;51.094;7.030;2023-08-20T14:51:44;9.60;;;6.30;;
22622;SDS011;11478;51.094;7.030;2023-08-20T14:54:23;8.10;;;6.20;;
22622;SDS011;11478;51.094;7.030;2023-08-20T14:56:49;6.47;;;5.88;;
22622;SDS011;11478;51.094;7.030;2023-08-20T14:59:19;10.07;;;6.28;;
22622;SDS011;11478;51.094;7.030;2023-08-20T15:01:45;8.23;;;6.13;;
22622;SDS011;11478;51.094;7.030;2023-08-20T15:04:14;7.60;;;6.60;;
22622;SDS011;11478;51.094;7.030;2023-08-20T15:06:45;8.23;;;5.75;;
22622;SDS011;11478;51.094;7.030;2023-08-20T15:09:16;7.13;;;6.13;;
22622;SDS011;11478;51.094;7.030;2023-08-20T15:11:42;6.68;;;5.97;;
22622;SDS011;11478;51.094;7.030;2023-08-20T15:14:08;8.13;;;5.95;;
22622;SDS011;11478;51.094;7.030;2023-08-20T15:16:34;6.72;;;5.65;;
22622;SDS011;11478;51.094;7.030;2023-08-20T15:19:00;7.30;;;5.72;;
22622;SDS011;11478;51.094;7.030;2023-08-20T15:21:27;9.82;;;6.13;;
22622;SDS011;11478;51.094;7.030;2023-08-20T15:23:53;8.05;;;6.03;;
22622;SDS011;11478;51.094;7.030;2023-08-20T15:26:19;10.75;;;6.50;;
22622;SDS011;11478;51.094;7.030;2023-08-20T15:28:45;8.15;;;5.88;;
22622;SDS011;11478;51.094;7.030;2023-08-20T15:31:16;7.50;;;5.80;;
22622;SDS011;11478;51.094;7.030;2023-08-20T15:33:48;8.57;;;5.82;;
22622;SDS011;11478;51.094;7.030;2023-08-20T15:36:16;7.43;;;5.18;;
22622;SDS011;11478;51.094;7.030;2023-08-20T15:38:42;8.82;;;5.47;;
22622;SDS011;11478;51.094;7.030;2023-08-20T15:41:10;7.20;;;5.63;;
22622;SDS011;11478;51.094;7.030;2023-08-20T15:43:36;9.10;;;5.47;;
22622;SDS011;11478;51.094;7.030;2023-08-20T15:46:02;8.27;;;5.32;;
22622;SDS011;11478;51.094;7.030;2023-08-20T15:48:28;7.07;;;5.57;;
22622;SDS011;11478;51.094;7.030;2023-08-20T15:50:54;7.50;;;5.55;;
22622;SDS011;11478;51.094;7.030;2023-08-20T15:53:23;7.90;;;5.22;;
22622;SDS011;11478;51.094;7.030;2023-08-20T15:55:51;8.15;;;6.10;;
22622;SDS011;11478;51.094;7.030;2023-08-20T15:58:17;7.20;;;5.95;;
22622;SDS011;11478;51.094;7.030;2023-08-20T16:00:43;8.35;;;5.70;;
22622;SDS011;11478;51.094;7.030;2023-08-20T16:03:08;6.43;;;5.15;;
22622;SDS011;11478;51.094;7.030;2023-08-20T16:05:40;7.80;;;5.72;;
22622;SDS011;11478;51.094;7.030;2023-08-20T16:08:06;11.15;;;5.72;;
22622;SDS011;11478;51.094;7.030;2023-08-20T16:10:37;7.78;;;5.68;;